Time;durP1;ratioP1;P1;durP2;ratioP2;P2;SDS_P1;SDS_P2;PMS_P1;PMS_P2;Temp;Humidity;BMP_temperature;BMP_pressure;BME280_temperature;BME280_humidity;BME280_pressure;Samples;Min_cycle;Max_cycle;Signal;HPM_P1;HPM_P2
2023/04/13 00:00:29;;;;;;;0.57;0.57;;;18.90;51.30;;;;;;4973295;28;20196;-70
2023/04/13 00:02:55;;;;;;;0.80;0.80;;;18.80;51.20;;;;;;4974106;28;20193;-70
2023/04/13 00:05:22;;;;;;;0.50;0.50;;;18.80;51.20;;;;;;4973206;28;20205;-70
2023/04/13 00:07:50;;;;;;;0.55;0.55;;;18.80;51.20;;;;;;4974118;28;20200;-70
2023/04/13 00:10:17;;;;;;;0.50;0.50;;;18.80;51.20;;;;;;4972663;28;20209;-70
2023/04/13 00:12:47;;;;;;;0.40;0.40;;;18.80;51.20;;;;;;4972637;28;20296;-70
2023/04/13 00:15:18;;;;;;;0.40;0.40;;;18.80;51.20;;;;;;4972757;28;20196;-70
2023/04/13 00:17:46;;;;;;;0.60;0.60;;;18.80;51.20;;;;;;4974297;28;20613;-70
2023/04/13 00:20:14;;;;;;;0.50;0.50;;;18.80;51.20;;;;;;4972888;28;20236;-70
2023/04/13 00:22:45;;;;;;;0.50;0.50;;;18.80;51.20;;;;;;4972535;28;20209;-70
2023/04/13 00:25:13;;;;;;;0.50;0.50;;;18.80;51.10;;;;;;4972882;28;20209;-70
2023/04/13 00:27:40;;;;;;;0.38;0.38;;;18.80;51.10;;;;;;4972625;28;20209;-70
2023/04/13 00:30:11;;;;;;;0.40;0.40;;;18.80;51.20;;;;;;4956430;28;20233;-70
2023/04/13 00:32:41;;;;;;;0.40;0.40;;;18.80;51.10;;;;;;4972190;28;20321;-70
2023/04/13 00:35:15;;;;;;;0.50;0.45;;;18.80;51.10;;;;;;4972365;28;20244;-70
2023/04/13 00:37:46;;;;;;;0.40;0.40;;;18.80;51.10;;;;;;4972418;28;20193;-70
2023/04/13 00:40:14;;;;;;;0.40;0.40;;;18.80;51.10;;;;;;4972364;28;20194;-70
2023/04/13 00:42:46;;;;;;;0.45;0.40;;;18.80;51.10;;;;;;4955850;28;20248;-70
2023/04/13 00:45:13;;;;;;;0.50;0.50;;;18.80;51.10;;;;;;4972625;28;20244;-70
2023/04/13 00:47:41;;;;;;;0.60;0.60;;;18.80;51.10;;;;;;4956216;28;20200;-70
2023/04/13 00:50:08;;;;;;;0.50;0.50;;;18.80;51.10;;;;;;4956003;28;20217;-70
2023/04/13 00:52:38;;;;;;;0.43;0.43;;;18.80;51.10;;;;;;4972392;28;20284;-70
2023/04/13 00:55:06;;;;;;;0.45;0.45;;;18.80;51.10;;;;;;4956365;28;20224;-70
2023/04/13 00:57:33;;;;;;;0.60;0.60;;;18.80;51.00;;;;;;4972431;28;20189;-70
2023/04/13 01:00:05;;;;;;;0.55;0.55;;;18.80;51.00;;;;;;4972375;28;20220;-70
2023/04/13 01:02:31;;;;;;;0.40;0.40;;;18.80;51.00;;;;;;4972130;28;20232;-70
2023/04/13 01:04:57;;;;;;;0.57;0.57;;;18.80;51.00;;;;;;4973498;28;20276;-70
2023/04/13 01:07:29;;;;;;;0.40;0.40;;;18.80;51.00;;;;;;4971937;28;20194;-70
2023/04/13 01:10:27;;;;;;;0.40;0.40;;;18.80;51.00;;;;;;4953093;29;20224;-70
2023/04/13 01:13:20;;;;;;;0.63;0.63;;;18.80;51.00;;;;;;4971831;28;20197;-70
2023/04/13 01:16:17;;;;;;;0.43;0.43;;;18.80;51.00;;;;;;4972124;28;20730;-70
2023/04/13 01:18:49;;;;;;;0.47;0.47;;;18.80;51.00;;;;;;4972061;28;20284;-70
2023/04/13 01:21:23;;;;;;;0.50;0.50;;;18.80;51.00;;;;;;4971834;28;20213;-70
2023/04/13 01:24:25;;;;;;;0.50;0.50;;;18.80;51.00;;;;;;4976190;28;20289;-70
2023/04/13 01:27:13;;;;;;;0.47;0.47;;;18.80;51.00;;;;;;4977065;28;20262;-70
2023/04/13 01:29:43;;;;;;;0.40;0.40;;;18.80;51.00;;;;;;4975857;28;20236;-70
2023/04/13 01:32:10;;;;;;;0.60;0.57;;;18.80;51.00;;;;;;4975777;28;20593;-70
2023/04/13 01:34:38;;;;;;;0.50;0.50;;;18.80;51.00;;;;;;4975797;28;20193;-70
2023/04/13 01:37:07;;;;;;;0.50;0.50;;;18.80;51.00;;;;;;4975668;28;20221;-70
2023/04/13 01:39:36;;;;;;;0.47;0.47;;;18.80;51.00;;;;;;4959887;28;20197;-70
2023/04/13 01:42:17;;;;;;;0.50;0.50;;;18.80;51.00;;;;;;4961245;28;20232;-70
2023/04/13 01:44:44;;;;;;;0.35;0.35;;;18.80;51.00;;;;;;4959527;28;20200;-70
2023/04/13 01:47:19;;;;;;;0.57;0.57;;;18.80;51.00;;;;;;4959530;28;20213;-70
2023/04/13 01:50:02;;;;;;;0.40;0.40;;;18.80;51.00;;;;;;4975810;28;20226;-70
2023/04/13 01:52:34;;;;;;;0.70;0.50;;;18.80;51.00;;;;;;4975578;28;20217;-70
2023/04/13 01:55:04;;;;;;;0.40;0.40;;;18.80;51.00;;;;;;4959866;28;20186;-70
2023/04/13 01:57:34;;;;;;;0.40;0.40;;;18.80;51.00;;;;;;4951890;28;20201;-70
2023/04/13 02:00:10;;;;;;;0.40;0.40;;;18.80;51.00;;;;;;4959717;28;20280;-70
2023/04/13 02:02:38;;;;;;;0.47;0.47;;;18.80;51.00;;;;;;4976222;28;20697;-70
2023/04/13 02:05:07;;;;;;;0.50;0.50;;;18.80;51.00;;;;;;4957920;28;20194;-70
2023/04/13 02:07:34;;;;;;;0.77;0.50;;;18.80;51.00;;;;;;4967412;28;20192;-70
2023/04/13 02:09:59;;;;;;;0.50;0.50;;;18.80;51.00;;;;;;4976390;28;20221;-70
2023/04/13 02:12:26;;;;;;;0.40;0.40;;;18.80;51.00;;;;;;4958736;28;20680;-70
2023/04/13 02:14:52;;;;;;;0.50;0.50;;;18.80;51.00;;;;;;4975295;28;20637;-70
2023/04/13 02:17:18;;;;;;;0.55;0.55;;;18.80;51.00;;;;;;4974354;28;20256;-70
2023/04/13 02:19:45;;;;;;;0.40;0.32;;;18.80;51.00;;;;;;4991376;28;20688;-70
2023/04/13 02:22:15;;;;;;;0.43;0.43;;;18.80;51.00;;;;;;4958740;28;20264;-70
2023/04/13 02:24:41;;;;;;;0.30;0.30;;;18.80;51.00;;;;;;4959104;28;20217;-70
2023/04/13 02:27:07;;;;;;;0.40;0.40;;;18.80;51.10;;;;;;4974827;28;20196;-70
2023/04/13 02:29:33;;;;;;;0.40;0.40;;;18.80;51.10;;;;;;4974898;28;20279;-70
2023/04/13 02:32:00;;;;;;;0.50;0.50;;;18.80;51.00;;;;;;4974449;28;20205;-70
2023/04/13 02:34:26;;;;;;;0.50;0.50;;;18.80;51.10;;;;;;4973725;28;20202;-70
2023/04/13 02:36:52;;;;;;;0.22;0.22;;;18.80;51.00;;;;;;4958894;28;20277;-70
2023/04/13 02:39:18;;;;;;;0.50;0.50;;;18.80;51.00;;;;;;4974537;28;20224;-70
2023/04/13 02:41:44;;;;;;;0.40;0.40;;;18.80;51.00;;;;;;4974648;28;20209;-70
2023/04/13 02:44:16;;;;;;;0.85;0.50;;;18.80;51.00;;;;;;4974400;28;20193;-70
2023/04/13 02:46:50;;;;;;;0.50;0.50;;;18.80;51.00;;;;;;4974494;28;20205;-70
2023/04/13 02:49:16;;;;;;;0.40;0.40;;;18.80;51.00;;;;;;4958513;28;20260;-70
2023/04/13 02:51:57;;;;;;;0.50;0.50;;;18.80;51.00;;;;;;4959709;28;20219;-70
2023/04/13 02:54:36;;;;;;;0.43;0.43;;;18.80;51.00;;;;;;4960000;28;20660;-71
2023/04/13 02:57:02;;;;;;;0.52;0.52;;;18.80;51.00;;;;;;4974540;28;20248;-70
2023/04/13 02:59:31;;;;;;;0.30;0.30;;;18.80;51.00;;;;;;4973999;28;20276;-70
2023/04/13 03:01:57;;;;;;;0.47;0.47;;;18.80;51.00;;;;;;4957866;28;20209;-70
2023/04/13 03:04:24;;;;;;;0.45;0.45;;;18.80;51.00;;;;;;4974316;28;20193;-70
2023/04/13 03:06:53;;;;;;;0.65;0.45;;;18.80;51.00;;;;;;4974108;28;20244;-70
2023/04/13 03:09:20;;;;;;;0.47;0.47;;;18.80;51.00;;;;;;4973932;28;20213;-70
2023/04/13 03:11:51;;;;;;;0.60;0.50;;;18.80;51.00;;;;;;4958333;28;20209;-70
2023/04/13 03:14:21;;;;;;;0.52;0.52;;;18.80;51.00;;;;;;4958514;28;20194;-70
2023/04/13 03:16:51;;;;;;;0.47;0.40;;;18.80;51.00;;;;;;4973941;28;20185;-70
2023/04/13 03:19:19;;;;;;;0.40;0.30;;;18.80;51.00;;;;;;4973686;28;20735;-70
2023/04/13 03:21:47;;;;;;;0.30;0.20;;;18.80;51.00;;;;;;4973844;28;20360;-70
2023/04/13 03:24:17;;;;;;;0.45;0.45;;;18.80;51.00;;;;;;4973804;28;20198;-70
2023/04/13 03:26:44;;;;;;;0.50;0.50;;;18.80;51.00;;;;;;4973785;28;20738;-70
2023/04/13 03:29:13;;;;;;;0.57;0.57;;;18.80;51.00;;;;;;4973575;28;20213;-70
2023/04/13 03:31:42;;;;;;;0.40;0.40;;;18.80;51.00;;;;;;4973333;28;20213;-70
2023/04/13 03:34:08;;;;;;;0.20;0.20;;;18.80;51.00;;;;;;4973662;28;20213;-70
2023/04/13 03:36:35;;;;;;;0.40;0.40;;;18.80;51.00;;;;;;4957549;28;20197;-70
2023/04/13 03:39:01;;;;;;;0.30;0.30;;;18.80;51.00;;;;;;4957463;28;20284;-70
2023/04/13 03:41:32;;;;;;;0.40;0.40;;;18.80;51.00;;;;;;4973572;28;20236;-70
2023/04/13 03:43:58;;;;;;;0.55;0.40;;;18.80;51.00;;;;;;4974798;28;20189;-70
2023/04/13 03:46:24;;;;;;;0.45;0.43;;;18.80;51.00;;;;;;4973179;28;20566;-70
2023/04/13 03:48:50;;;;;;;0.52;0.52;;;18.80;51.00;;;;;;4973375;28;20619;-70
2023/04/13 03:51:20;;;;;;;0.50;0.50;;;18.80;51.00;;;;;;4973184;28;20213;-70
2023/04/13 03:53:47;;;;;;;0.40;0.40;;;18.80;51.00;;;;;;4973442;28;20554;-70
2023/04/13 03:56:16;;;;;;;0.30;0.30;;;18.80;51.00;;;;;;4957328;28;20189;-70
2023/04/13 03:58:42;;;;;;;0.40;0.40;;;18.80;51.00;;;;;;4972788;28;20725;-70
2023/04/13 04:01:10;;;;;;;0.40;0.40;;;18.80;51.00;;;;;;4973005;28;20217;-70
2023/04/13 04:03:43;;;;;;;0.40;0.40;;;18.80;51.00;;;;;;4954621;28;20190;-70
2023/04/13 04:06:09;;;;;;;0.32;0.30;;;18.80;51.00;;;;;;4968979;28;20268;-70
2023/04/13 04:08:38;;;;;;;0.30;0.30;;;18.80;51.00;;;;;;4973214;28;20197;-70
2023/04/13 04:11:10;;;;;;;0.47;0.47;;;18.80;50.90;;;;;;4972978;28;20256;-70
2023/04/13 04:13:36;;;;;;;0.50;0.50;;;18.80;50.90;;;;;;4956893;28;20225;-70
2023/04/13 04:16:10;;;;;;;0.50;0.50;;;18.80;50.90;;;;;;4957471;28;20244;-70
2023/04/13 04:18:39;;;;;;;0.40;0.40;;;18.80;50.90;;;;;;4973055;28;20190;-70
2023/04/13 04:21:07;;;;;;;0.75;0.50;;;18.80;50.90;;;;;;4957001;28;20205;-70
2023/04/13 04:23:36;;;;;;;0.40;0.40;;;18.80;51.00;;;;;;4972516;28;20202;-70
2023/04/13 04:26:05;;;;;;;0.40;0.40;;;18.80;50.90;;;;;;4972610;28;20189;-70
2023/04/13 04:28:49;;;;;;;0.40;0.40;;;18.80;50.90;;;;;;4967125;28;20190;-70
2023/04/13 04:31:19;;;;;;;0.57;0.45;;;18.80;50.90;;;;;;4969390;28;20316;-70
2023/04/13 04:33:50;;;;;;;0.63;0.40;;;18.80;51.00;;;;;;4957122;28;20673;-70
2023/04/13 04:36:17;;;;;;;0.32;0.32;;;18.80;50.90;;;;;;4972523;28;20190;-70
2023/04/13 04:38:56;;;;;;;0.50;0.50;;;18.80;50.90;;;;;;4972842;28;20660;-70
2023/04/13 04:41:24;;;;;;;0.75;0.60;;;18.80;50.90;;;;;;4972204;28;20243;-70
2023/04/13 04:43:55;;;;;;;0.68;0.60;;;18.70;50.80;;;;;;4972292;28;20225;-70
2023/04/13 04:46:24;;;;;;;0.50;0.50;;;18.80;50.90;;;;;;4972202;28;20641;-70
2023/04/13 04:48:54;;;;;;;0.82;0.50;;;18.80;50.90;;;;;;4972225;28;20625;-70
2023/04/13 04:51:23;;;;;;;0.50;0.50;;;18.80;50.80;;;;;;4956091;28;20217;-70
2023/04/13 04:53:51;;;;;;;0.60;0.47;;;18.80;50.80;;;;;;4956211;28;20197;-70
2023/04/13 04:56:18;;;;;;;0.45;0.45;;;18.80;50.90;;;;;;4971749;28;20193;-70
2023/04/13 04:58:48;;;;;;;0.30;0.30;;;18.80;50.90;;;;;;4956843;28;20200;-70
2023/04/13 05:01:16;;;;;;;0.40;0.40;;;18.80;50.90;;;;;;4955975;28;20209;-70
2023/04/13 05:03:42;;;;;;;0.63;0.63;;;18.80;50.80;;;;;;4960882;28;20556;-70
2023/04/13 05:06:31;;;;;;;0.47;0.30;;;18.80;50.80;;;;;;4965848;28;20240;-70
2023/04/13 05:08:58;;;;;;;1.00;0.50;;;18.80;50.90;;;;;;4955966;28;20189;-70
2023/04/13 05:11:25;;;;;;;0.55;0.45;;;18.80;50.80;;;;;;4972180;28;20227;-70
2023/04/13 05:13:54;;;;;;;0.35;0.35;;;18.80;50.80;;;;;;4972088;28;20244;-70
2023/04/13 05:16:23;;;;;;;0.40;0.40;;;18.80;50.80;;;;;;4972025;28;20217;-70
2023/04/13 05:18:51;;;;;;;0.43;0.43;;;18.80;50.80;;;;;;4972033;28;20646;-70
2023/04/13 05:21:35;;;;;;;0.50;0.50;;;18.80;50.80;;;;;;4972865;28;20250;-70
2023/04/13 05:24:03;;;;;;;0.70;0.70;;;18.80;50.80;;;;;;4972098;28;20244;-70
2023/04/13 05:26:29;;;;;;;0.55;0.55;;;18.80;50.80;;;;;;4955676;28;20192;-70
2023/04/13 05:28:56;;;;;;;0.50;0.50;;;18.80;50.80;;;;;;4971812;28;20221;-70
2023/04/13 05:31:26;;;;;;;0.40;0.40;;;18.80;50.80;;;;;;4971853;28;20260;-70
2023/04/13 05:33:51;;;;;;;0.40;0.40;;;18.70;50.70;;;;;;4971827;28;20193;-70
2023/04/13 05:36:17;;;;;;;0.50;0.45;;;18.80;50.80;;;;;;4972026;28;20204;-70
2023/04/13 05:38:44;;;;;;;0.50;0.50;;;18.80;50.80;;;;;;4956184;28;20217;-70
2023/04/13 05:41:12;;;;;;;0.50;0.50;;;18.80;50.80;;;;;;4971341;28;20217;-70
2023/04/13 05:43:38;;;;;;;0.50;0.50;;;18.80;50.80;;;;;;4971701;28;20193;-70
2023/04/13 05:46:05;;;;;;;0.55;0.50;;;18.80;50.80;;;;;;4955636;28;20567;-70
2023/04/13 05:48:31;;;;;;;0.40;0.40;;;18.80;50.70;;;;;;4971636;28;20236;-70
2023/04/13 05:51:04;;;;;;;0.50;0.50;;;18.80;50.80;;;;;;4971502;28;20253;-70
2023/04/13 05:53:32;;;;;;;0.63;0.55;;;18.80;50.70;;;;;;4971662;28;20213;-70
2023/04/13 05:55:58;;;;;;;0.50;0.50;;;18.80;50.70;;;;;;4971680;28;20200;-70
2023/04/13 05:58:25;;;;;;;0.65;0.50;;;18.80;50.70;;;;;;4955832;28;20193;-70
2023/04/13 06:01:01;;;;;;;0.50;0.50;;;18.80;50.70;;;;;;4971615;28;20221;-70
2023/04/13 06:03:30;;;;;;;1.35;0.60;;;18.80;50.70;;;;;;4971662;28;20193;-70
2023/04/13 06:05:56;;;;;;;0.40;0.40;;;18.80;50.70;;;;;;4971990;28;20198;-70
2023/04/13 06:08:22;;;;;;;0.80;0.60;;;18.80;50.70;;;;;;4973366;28;20197;-70
2023/04/13 06:10:49;;;;;;;0.50;0.50;;;18.70;50.60;;;;;;4975074;28;20226;-70
2023/04/13 06:13:15;;;;;;;0.60;0.60;;;18.80;50.70;;;;;;4975007;28;20182;-70
2023/04/13 06:15:41;;;;;;;0.60;0.60;;;18.80;51.30;;;;;;4975047;28;20193;-70
2023/04/13 06:18:07;;;;;;;0.50;0.50;;;18.70;50.60;;;;;;4974918;28;20197;-70
2023/04/13 06:20:33;;;;;;;0.70;0.60;;;18.80;50.60;;;;;;4975038;28;20189;-70
2023/04/13 06:22:59;;;;;;;0.45;0.45;;;18.80;50.60;;;;;;4958661;28;20194;-70
2023/04/13 06:25:26;;;;;;;0.60;0.30;;;18.70;50.60;;;;;;4975111;28;20756;-70
2023/04/13 06:27:53;;;;;;;0.63;0.60;;;18.80;50.70;;;;;;4974676;28;20584;-70
2023/04/13 06:30:20;;;;;;;0.50;0.50;;;18.80;50.60;;;;;;4958599;28;20209;-70
2023/04/13 06:32:49;;;;;;;0.63;0.63;;;18.80;50.70;;;;;;4974464;28;20212;-70
2023/04/13 06:35:17;;;;;;;0.30;0.30;;;18.80;50.70;;;;;;4959049;28;20633;-70
2023/04/13 06:37:46;;;;;;;0.63;0.50;;;18.80;50.70;;;;;;4975177;28;20285;-70
2023/04/13 06:40:19;;;;;;;0.50;0.50;;;18.80;50.70;;;;;;4974564;28;20239;-70
2023/04/13 06:42:53;;;;;;;0.50;0.50;;;18.80;50.70;;;;;;4959509;28;20562;-70
2023/04/13 06:45:39;;;;;;;0.60;0.60;;;18.80;50.70;;;;;;4974278;28;20244;-70
2023/04/13 06:48:08;;;;;;;0.60;0.60;;;18.80;50.70;;;;;;4974401;28;20301;-70
2023/04/13 06:50:36;;;;;;;0.40;0.40;;;18.80;50.70;;;;;;4990401;28;20230;-70
2023/04/13 06:53:03;;;;;;;0.60;0.60;;;18.80;50.70;;;;;;4974269;28;20198;-70
2023/04/13 06:55:30;;;;;;;0.50;0.50;;;18.80;50.70;;;;;;4974614;28;20213;-70
2023/04/13 06:57:55;;;;;;;0.43;0.43;;;18.80;50.60;;;;;;4974689;28;20351;-71
2023/04/13 07:00:21;;;;;;;0.52;0.52;;;18.80;50.60;;;;;;4958140;28;20265;-71
2023/04/13 07:02:47;;;;;;;0.47;0.47;;;18.80;50.70;;;;;;4974037;28;20272;-70
2023/04/13 07:05:16;;;;;;;0.40;0.40;;;18.80;50.70;;;;;;4974936;28;20201;-71
2023/04/13 07:07:45;;;;;;;0.70;0.60;;;18.80;50.60;;;;;;4958750;28;20202;-70
2023/04/13 07:10:11;;;;;;;0.90;0.55;;;18.80;50.70;;;;;;4973992;28;20376;-70
2023/04/13 07:12:38;;;;;;;0.70;0.70;;;18.80;50.70;;;;;;4973999;28;20221;-70
2023/04/13 07:15:05;;;;;;;0.93;0.60;;;18.80;50.70;;;;;;4974263;28;20706;-70
2023/04/13 07:17:32;;;;;;;0.60;0.60;;;18.80;50.70;;;;;;4973732;28;20554;-70
2023/04/13 07:19:58;;;;;;;1.00;0.60;;;18.80;50.70;;;;;;4973542;28;20196;-70
2023/04/13 07:22:23;;;;;;;0.80;0.70;;;18.80;50.70;;;;;;4957554;28;20221;-70
2023/04/13 07:24:51;;;;;;;0.95;0.70;;;18.80;50.70;;;;;;4973737;28;20248;-70
2023/04/13 07:27:19;;;;;;;1.10;0.70;;;18.80;50.60;;;;;;4958163;28;20205;-70
2023/04/13 07:29:45;;;;;;;0.80;0.55;;;18.80;50.70;;;;;;4973939;28;20295;-70
2023/04/13 07:32:16;;;;;;;0.63;0.63;;;18.80;50.70;;;;;;4958339;28;20202;-70
2023/04/13 07:34:43;;;;;;;0.60;0.52;;;18.80;50.70;;;;;;4957853;28;20657;-70
2023/04/13 07:37:10;;;;;;;0.88;0.68;;;18.80;50.70;;;;;;4973679;28;20194;-70
2023/04/13 07:39:35;;;;;;;1.02;0.80;;;18.80;50.70;;;;;;4973493;28;20193;-70
2023/04/13 07:42:01;;;;;;;0.70;0.70;;;18.80;50.70;;;;;;4973174;28;20260;-70
2023/04/13 07:44:41;;;;;;;0.60;0.60;;;18.80;50.70;;;;;;4973778;28;20200;-70
2023/04/13 07:47:08;;;;;;;0.70;0.70;;;18.80;50.70;;;;;;4973496;28;20220;-70
2023/04/13 07:49:36;;;;;;;0.60;0.60;;;18.80;50.70;;;;;;4973653;28;20245;-70
2023/04/13 07:52:05;;;;;;;0.73;0.73;;;18.80;50.60;;;;;;4973058;28;20307;-70
2023/04/13 07:54:35;;;;;;;0.70;0.50;;;18.80;50.70;;;;;;4957781;28;20202;-70
2023/04/13 07:57:04;;;;;;;0.63;0.52;;;18.80;50.70;;;;;;4973080;28;20197;-70
2023/04/13 07:59:32;;;;;;;0.50;0.50;;;18.80;50.70;;;;;;4973134;28;20213;-70
2023/04/13 08:01:58;;;;;;;0.52;0.52;;;18.80;50.70;;;;;;4973204;28;20264;-70
2023/04/13 08:04:25;;;;;;;0.50;0.50;;;18.80;50.70;;;;;;4957144;28;20186;-70
2023/04/13 08:06:52;;;;;;;0.60;0.52;;;18.80;50.60;;;;;;4973280;28;20201;-69
2023/04/13 08:09:18;;;;;;;0.73;0.65;;;18.80;50.60;;;;;;4972752;28;20245;-70
2023/04/13 08:11:44;;;;;;;0.70;0.60;;;18.80;50.60;;;;;;4956643;28;20722;-70
2023/04/13 08:14:10;;;;;;;0.63;0.60;;;18.80;50.60;;;;;;4973215;28;20190;-70
2023/04/13 08:16:38;;;;;;;0.50;0.50;;;18.80;50.60;;;;;;4972744;28;20204;-70
2023/04/13 08:19:07;;;;;;;0.63;0.60;;;18.90;50.60;;;;;;4972828;28;20186;-70
2023/04/13 08:21:40;;;;;;;0.70;0.70;;;18.80;50.50;;;;;;4972812;28;20220;-70
2023/04/13 08:24:06;;;;;;;0.60;0.60;;;18.90;50.50;;;;;;4972786;28;20194;-69
2023/04/13 08:26:32;;;;;;;0.50;0.50;;;18.90;50.60;;;;;;4972673;28;20224;-70
2023/04/13 08:29:00;;;;;;;1.08;0.70;;;18.90;50.50;;;;;;4972671;28;20276;-70
2023/04/13 08:31:26;;;;;;;0.70;0.57;;;18.90;50.50;;;;;;4971480;28;20221;-70
2023/04/13 08:33:56;;;;;;;2.13;0.82;;;18.90;50.40;;;;;;4972669;28;20272;-69
2023/04/13 08:36:23;;;;;;;0.85;0.70;;;18.90;50.40;;;;;;4972508;28;20296;-70
2023/04/13 08:38:54;;;;;;;0.60;0.60;;;18.90;50.40;;;;;;4972362;28;20200;-70
2023/04/13 08:41:22;;;;;;;0.75;0.60;;;18.90;50.40;;;;;;4956095;28;20217;-70
2023/04/13 08:43:51;;;;;;;0.50;0.50;;;18.90;50.40;;;;;;4972486;28;20197;-70
2023/04/13 08:46:20;;;;;;;1.25;0.90;;;18.90;50.40;;;;;;4972372;28;20194;-70
2023/04/13 08:48:52;;;;;;;1.30;0.80;;;18.90;50.40;;;;;;4972455;28;20220;-70
2023/04/13 08:51:21;;;;;;;1.35;0.70;;;18.90;50.40;;;;;;4972188;28;20312;-70
2023/04/13 08:53:52;;;;;;;1.02;0.65;;;18.90;50.40;;;;;;4972439;28;20189;-70
2023/04/13 08:56:23;;;;;;;1.20;0.70;;;18.90;50.40;;;;;;4956953;28;20573;-70
2023/04/13 08:59:06;;;;;;;1.10;0.80;;;18.90;50.40;;;;;;4956247;28;20190;-70
2023/04/13 09:01:35;;;;;;;0.70;0.70;;;18.90;50.40;;;;;;4971771;28;20225;-70
2023/04/13 09:04:12;;;;;;;0.70;0.70;;;18.90;50.40;;;;;;4972120;28;20197;-70
2023/04/13 09:06:49;;;;;;;0.70;0.70;;;18.90;50.40;;;;;;4972121;28;20193;-70
2023/04/13 09:09:17;;;;;;;0.82;0.70;;;18.90;50.40;;;;;;4956103;28;20204;-70
2023/04/13 09:11:44;;;;;;;0.80;0.70;;;18.90;50.40;;;;;;4972083;28;20236;-70
2023/04/13 09:14:11;;;;;;;1.70;0.70;;;18.90;51.00;;;;;;4956407;28;20189;-70
2023/04/13 09:16:39;;;;;;;0.80;0.50;;;18.90;50.40;;;;;;4971952;28;20193;-70
2023/04/13 09:19:08;;;;;;;1.15;0.73;;;18.90;50.40;;;;;;4972291;28;20240;-70
2023/04/13 09:21:37;;;;;;;0.60;0.60;;;19.00;50.50;;;;;;4973026;28;20236;-70
2023/04/13 09:24:05;;;;;;;0.88;0.47;;;19.00;50.50;;;;;;4972330;28;20229;-70
2023/04/13 09:26:45;;;;;;;0.50;0.50;;;18.90;50.40;;;;;;4955789;28;20203;-70
2023/04/13 09:29:17;;;;;;;0.90;0.60;;;18.90;50.40;;;;;;4973003;28;20217;-70
2023/04/13 09:31:45;;;;;;;1.00;0.80;;;18.90;50.40;;;;;;4971860;28;20227;-70
2023/04/13 09:34:12;;;;;;;0.88;0.60;;;18.90;50.40;;;;;;4956145;28;20190;-70
2023/04/13 09:36:39;;;;;;;0.77;0.60;;;18.90;50.40;;;;;;4972092;28;20182;-70
2023/04/13 09:39:05;;;;;;;0.80;0.70;;;18.90;50.40;;;;;;4973042;28;20201;-70
2023/04/13 09:41:35;;;;;;;0.70;0.70;;;19.00;50.50;;;;;;4971501;28;20221;-70
2023/04/13 09:44:15;;;;;;;0.68;0.63;;;19.00;50.50;;;;;;4974753;28;20244;-70
2023/04/13 09:46:42;;;;;;;0.68;0.68;;;19.00;50.50;;;;;;4976786;28;20475;-70
2023/04/13 09:49:08;;;;;;;0.85;0.60;;;19.00;50.50;;;;;;4975686;28;20189;-70
2023/04/13 09:51:40;;;;;;;1.05;0.70;;;19.00;50.50;;;;;;4959041;28;20229;-70
2023/04/13 09:54:06;;;;;;;0.60;0.60;;;19.00;50.50;;;;;;4975719;28;20553;-70
2023/04/13 09:56:44;;;;;;;1.13;1.02;;;19.00;50.50;;;;;;4976629;28;20192;-70
2023/04/13 09:59:11;;;;;;;0.50;0.50;;;19.00;50.50;;;;;;4956225;29;20666;-70
2023/04/13 10:01:37;;;;;;;1.00;0.73;;;19.00;50.50;;;;;;4973205;28;20202;-70
2023/04/13 10:04:08;;;;;;;2.15;0.70;;;19.00;50.50;;;;;;4975439;28;20561;-70
2023/04/13 10:06:45;;;;;;;1.60;1.02;;;19.00;50.50;;;;;;4975395;28;20197;-70
2023/04/13 10:09:11;;;;;;;0.43;0.43;;;19.00;50.50;;;;;;4975289;28;20228;-70
2023/04/13 10:11:50;;;;;;;1.17;0.77;;;19.10;50.60;;;;;;4975024;28;20575;-70
2023/04/13 10:14:26;;;;;;;0.60;0.60;;;19.00;51.00;;;;;;4975155;28;20189;-70
2023/04/13 10:17:22;;;;;;;0.90;0.70;;;19.10;50.60;;;;;;4975335;28;20193;-70
2023/04/13 10:19:52;;;;;;;1.02;0.70;;;19.00;50.40;;;;;;4974944;28;20205;-70
2023/04/13 10:22:21;;;;;;;0.93;0.70;;;19.10;50.60;;;;;;4974807;28;20209;-70
2023/04/13 10:24:48;;;;;;;0.70;0.65;;;19.10;50.60;;;;;;4974685;28;20646;-70
2023/04/13 10:27:22;;;;;;;1.08;0.70;;;19.10;50.60;;;;;;4975963;28;20724;-70
2023/04/13 10:29:48;;;;;;;1.25;0.80;;;19.10;50.60;;;;;;4975989;28;20245;-70
2023/04/13 10:32:32;;;;;;;0.70;0.50;;;19.10;50.50;;;;;;4975666;28;20210;-70
2023/04/13 10:35:12;;;;;;;1.10;0.70;;;19.10;50.40;;;;;;4976036;28;20196;-70
2023/04/13 10:37:39;;;;;;;1.13;0.75;;;19.10;50.50;;;;;;4958362;28;20190;-70
2023/04/13 10:40:13;;;;;;;1.02;0.70;;;19.10;50.50;;;;;;4975795;28;20256;-70
2023/04/13 10:42:45;;;;;;;0.65;0.65;;;19.10;50.40;;;;;;4974467;28;20217;-70
2023/04/13 10:45:23;;;;;;;1.15;0.70;;;19.10;50.60;;;;;;4958501;28;20253;-70
2023/04/13 10:47:49;;;;;;;0.90;0.65;;;19.10;50.50;;;;;;4974736;28;20217;-70
2023/04/13 10:50:28;;;;;;;0.95;0.70;;;19.10;50.60;;;;;;4974579;28;20224;-70
2023/04/13 10:52:59;;;;;;;0.77;0.50;;;19.00;50.50;;;;;;4974254;28;20257;-70
2023/04/13 10:55:26;;;;;;;1.10;0.80;;;19.10;50.60;;;;;;4973413;28;20560;-70
2023/04/13 10:57:55;;;;;;;0.88;0.63;;;19.10;50.60;;;;;;4958573;28;20202;-70
2023/04/13 11:00:22;;;;;;;0.80;0.70;;;19.10;50.60;;;;;;4974507;28;20208;-70
2023/04/13 11:02:50;;;;;;;1.05;0.85;;;19.10;50.60;;;;;;4974368;28;20209;-70
2023/04/13 11:05:20;;;;;;;0.77;0.77;;;19.10;50.50;;;;;;4974197;28;20556;-70
2023/04/13 11:07:50;;;;;;;1.30;0.70;;;19.10;50.40;;;;;;4974169;28;20190;-70
2023/04/13 11:10:25;;;;;;;1.10;0.73;;;19.10;50.30;;;;;;4958058;28;20608;-70
2023/04/13 11:12:53;;;;;;;0.77;0.60;;;19.10;50.30;;;;;;4973973;28;20199;-70
2023/04/13 11:15:28;;;;;;;0.80;0.70;;;19.10;50.30;;;;;;4975523;28;20668;-70
2023/04/13 11:17:57;;;;;;;1.00;0.80;;;19.10;50.30;;;;;;4973915;28;20197;-70
2023/04/13 11:20:50;;;;;;;1.23;0.90;;;19.10;50.50;;;;;;4974034;28;20256;-70
2023/04/13 11:23:17;;;;;;;0.70;0.70;;;19.10;50.50;;;;;;4969114;28;20229;-70
2023/04/13 11:25:56;;;;;;;0.70;0.50;;;19.10;50.50;;;;;;4973804;28;20244;-70
2023/04/13 11:28:25;;;;;;;1.40;0.90;;;19.10;50.60;;;;;;4975074;28;20268;-70
2023/04/13 11:30:55;;;;;;;0.93;0.60;;;19.10;50.50;;;;;;4973448;28;20221;-70
2023/04/13 11:33:30;;;;;;;1.15;0.68;;;19.10;50.40;;;;;;4973622;28;20197;-70
2023/04/13 11:35:58;;;;;;;1.48;0.80;;;19.10;50.30;;;;;;4973931;28;20196;-70
2023/04/13 11:38:25;;;;;;;0.70;0.57;;;19.10;50.30;;;;;;4973620;28;20197;-70
2023/04/13 11:40:52;;;;;;;0.90;0.80;;;19.10;50.30;;;;;;4973643;28;20214;-70
2023/04/13 11:43:19;;;;;;;1.15;0.85;;;19.10;50.20;;;;;;4957599;28;20197;-70
2023/04/13 11:45:47;;;;;;;1.42;0.95;;;19.10;50.20;;;;;;4973418;28;20256;-70
2023/04/13 11:48:14;;;;;;;1.00;0.80;;;19.10;50.20;;;;;;4973481;28;20282;-70
2023/04/13 11:50:41;;;;;;;1.38;0.77;;;19.10;50.20;;;;;;4973133;28;20221;-70
2023/04/13 11:53:08;;;;;;;1.23;0.90;;;19.20;50.30;;;;;;4974443;28;20189;-70
2023/04/13 11:55:36;;;;;;;1.15;0.95;;;19.10;50.20;;;;;;4973508;28;20213;-70
2023/04/13 11:58:09;;;;;;;0.65;0.63;;;19.10;50.20;;;;;;4974562;28;20204;-70
2023/04/13 12:00:40;;;;;;;1.17;0.77;;;19.10;50.20;;;;;;4973548;28;20197;-70
2023/04/13 12:03:18;;;;;;;0.77;0.77;;;19.10;50.20;;;;;;4972972;28;20202;-70
2023/04/13 12:05:46;;;;;;;1.35;0.95;;;19.10;50.30;;;;;;4974084;28;20200;-70
2023/04/13 12:08:22;;;;;;;1.17;0.65;;;19.10;50.30;;;;;;4974283;28;20577;-70
2023/04/13 12:11:04;;;;;;;0.70;0.70;;;19.10;50.40;;;;;;4973866;28;20228;-70
2023/04/13 12:13:52;;;;;;;0.85;0.75;;;19.10;50.40;;;;;;4973059;28;20181;-70
2023/04/13 12:16:32;;;;;;;0.77;0.73;;;19.10;50.40;;;;;;4967768;28;20178;-70
2023/04/13 12:19:08;;;;;;;1.33;0.80;;;19.10;50.60;;;;;;4972724;28;20280;-70
2023/04/13 12:21:34;;;;;;;0.70;0.70;;;19.10;50.50;;;;;;4973764;28;20268;-70
2023/04/13 12:24:02;;;;;;;1.10;1.00;;;19.10;50.50;;;;;;4972633;28;20193;-70
2023/04/13 12:26:36;;;;;;;0.93;0.80;;;19.10;50.60;;;;;;4968968;28;20186;-69
2023/04/13 12:29:07;;;;;;;1.08;0.90;;;19.10;50.50;;;;;;4973129;28;20251;-70
2023/04/13 12:31:37;;;;;;;1.17;1.08;;;19.10;50.50;;;;;;4956226;28;20267;-70
2023/04/13 12:34:06;;;;;;;1.40;0.90;;;19.10;50.30;;;;;;4972695;28;20228;-70
2023/04/13 12:36:35;;;;;;;1.10;0.70;;;19.10;50.30;;;;;;4973878;28;20197;-70
2023/04/13 12:39:02;;;;;;;0.80;0.63;;;19.10;50.30;;;;;;4972685;28;20197;-69
2023/04/13 12:41:28;;;;;;;0.80;0.80;;;19.10;50.20;;;;;;4956192;28;20222;-70
2023/04/13 12:43:54;;;;;;;1.10;1.00;;;19.10;50.20;;;;;;4972321;28;20215;-70
2023/04/13 12:46:20;;;;;;;0.77;0.73;;;19.20;50.30;;;;;;4972621;28;20194;-70
2023/04/13 12:48:45;;;;;;;1.00;0.90;;;19.20;50.20;;;;;;4973574;28;20228;-70
2023/04/13 12:51:11;;;;;;;1.52;0.90;;;19.20;50.30;;;;;;4972187;28;20597;-70
2023/04/13 12:53:37;;;;;;;2.00;1.00;;;19.20;50.20;;;;;;4956109;28;20253;-70
2023/04/13 12:56:03;;;;;;;1.05;0.80;;;19.20;50.20;;;;;;4972279;28;20268;-70
2023/04/13 12:58:29;;;;;;;1.27;0.90;;;19.20;50.30;;;;;;4972273;28;20617;-70
2023/04/13 13:00:55;;;;;;;1.20;1.10;;;19.20;50.30;;;;;;4972115;28;20217;-70